Time;durP1;ratioP1;P1;durP2;ratioP2;P2;SDS_P1;SDS_P2;PMS_P1;PMS_P2;Temp;Humidity;BMP_temperature;BMP_pressure;BME280_temperature;BME280_humidity;BME280_pressure;Samples;Min_cycle;Max_cycle;Signal;HPM_P1;HPM_P2
2023/05/20 00:03:35;;;;;;;41.78;22.63;;;;;;;;;;10253750;28;20059;-86
2023/05/20 00:08:36;;;;;;;39.83;21.55;;;;;;;;;;10243931;28;20058;-86
2023/05/20 00:13:38;;;;;;;38.10;20.58;;;;;;;;;;10240288;28;20105;-86
2023/05/20 00:18:39;;;;;;;37.47;21.73;;;;;;;;;;10234431;28;20045;-86
2023/05/20 00:23:39;;;;;;;36.72;21.17;;;;;;;;;;10249718;28;20042;-86
2023/05/20 00:28:40;;;;;;;39.30;21.48;;;;;;;;;;10230350;28;20434;-86
2023/05/20 00:33:41;;;;;;;35.55;19.38;;;;;;;;;;10241607;28;20058;-86
2023/05/20 00:38:42;;;;;;;36.13;20.48;;;;;;;;;;10248679;28;20127;-86
2023/05/20 00:43:44;;;;;;;32.90;18.58;;;;;;;;;;10240789;28;20034;-86
2023/05/20 00:48:45;;;;;;;36.95;21.08;;;;;;;;;;10244087;28;20038;-86
2023/05/20 00:53:46;;;;;;;37.08;21.67;;;;;;;;;;10240232;28;20043;-86
2023/05/20 00:58:47;;;;;;;38.03;21.10;;;;;;;;;;10242841;28;20031;-86
2023/05/20 01:03:48;;;;;;;42.45;23.02;;;;;;;;;;10250391;28;20034;-87
2023/05/20 01:08:49;;;;;;;40.63;22.40;;;;;;;;;;10241606;28;20059;-87
2023/05/20 01:14:00;;;;;;;43.97;23.70;;;;;;;;;;10250103;28;20047;-86
2023/05/20 01:19:02;;;;;;;62.00;31.83;;;;;;;;;;10241669;28;20035;-86
2023/05/20 01:24:04;;;;;;;54.70;31.08;;;;;;;;;;10231661;28;20035;-87
2023/05/20 01:29:05;;;;;;;43.50;23.73;;;;;;;;;;10247395;28;20034;-87
2023/05/20 01:34:06;;;;;;;40.10;22.52;;;;;;;;;;10250664;28;20050;-87
2023/05/20 01:39:07;;;;;;;45.47;24.92;;;;;;;;;;10230214;28;20027;-87
2023/05/20 01:44:09;;;;;;;45.35;25.02;;;;;;;;;;10243907;28;20449;-87
2023/05/20 01:49:10;;;;;;;48.30;26.10;;;;;;;;;;10256956;28;20410;-87
2023/05/20 01:54:11;;;;;;;49.38;25.73;;;;;;;;;;10251047;28;20042;-86
2023/05/20 01:59:12;;;;;;;51.15;26.20;;;;;;;;;;10244143;28;20039;-87
2023/05/20 02:04:13;;;;;;;48.20;25.08;;;;;;;;;;10250759;28;20054;-87
2023/05/20 02:09:14;;;;;;;52.92;28.48;;;;;;;;;;10246281;28;20464;-86
2023/05/20 02:14:15;;;;;;;49.00;24.95;;;;;;;;;;10245888;28;20042;-87
2023/05/20 02:19:22;;;;;;;42.33;22.60;;;;;;;;;;10245751;28;20625;-86
2023/05/20 02:24:23;;;;;;;40.42;21.25;;;;;;;;;;10237572;28;20087;-86
2023/05/20 02:29:24;;;;;;;40.30;21.98;;;;;;;;;;10247654;28;20605;-86
2023/05/20 02:34:25;;;;;;;43.17;21.55;;;;;;;;;;10236500;28;20074;-85
2023/05/20 02:39:27;;;;;;;44.10;22.02;;;;;;;;;;10259162;28;20035;-86
2023/05/20 02:44:28;;;;;;;42.03;21.52;;;;;;;;;;10229166;28;20045;-86
2023/05/20 02:49:29;;;;;;;42.35;21.95;;;;;;;;;;10259810;28;20475;-86
2023/05/20 02:54:30;;;;;;;42.78;21.58;;;;;;;;;;10257505;28;20043;-87
2023/05/20 02:59:31;;;;;;;42.75;20.65;;;;;;;;;;10247117;28;20766;-87
2023/05/20 03:04:32;;;;;;;44.08;22.15;;;;;;;;;;10242867;28;20047;-86
2023/05/20 03:09:33;;;;;;;42.42;22.02;;;;;;;;;;10230487;28;20035;-85
2023/05/20 03:14:34;;;;;;;41.85;21.30;;;;;;;;;;10253884;28;20130;-86
2023/05/20 03:19:35;;;;;;;43.88;24.13;;;;;;;;;;10248580;28;20491;-86
2023/05/20 03:24:36;;;;;;;42.40;21.60;;;;;;;;;;10242764;28;20120;-86
2023/05/20 03:29:37;;;;;;;33.67;18.80;;;;;;;;;;10223411;28;20070;-87
2023/05/20 03:34:38;;;;;;;33.67;17.80;;;;;;;;;;10225069;28;20058;-86
2023/05/20 03:39:39;;;;;;;29.50;16.58;;;;;;;;;;10242125;28;20364;-86
2023/05/20 03:44:40;;;;;;;34.92;17.95;;;;;;;;;;10239783;28;20043;-86
2023/05/20 03:49:41;;;;;;;30.77;17.35;;;;;;;;;;10236465;28;20114;-87
2023/05/20 03:54:44;;;;;;;31.65;17.30;;;;;;;;;;10225136;28;20507;-86
2023/05/20 03:59:50;;;;;;;39.03;20.45;;;;;;;;;;10233363;28;20039;-84
2023/05/20 04:04:51;;;;;;;32.00;16.38;;;;;;;;;;10220751;28;20491;-85
2023/05/20 04:09:52;;;;;;;32.60;17.63;;;;;;;;;;10242679;28;20828;-85
2023/05/20 04:14:57;;;;;;;30.17;16.95;;;;;;;;;;10241115;28;20051;-86
2023/05/20 04:19:58;;;;;;;30.73;17.42;;;;;;;;;;10231117;28;20039;-86
2023/05/20 04:25:02;;;;;;;29.63;16.63;;;;;;;;;;10236722;28;20035;-85
2023/05/20 04:30:03;;;;;;;28.10;16.50;;;;;;;;;;10242677;28;20079;-86
2023/05/20 04:35:10;;;;;;;26.17;14.57;;;;;;;;;;10249531;28;20451;-86
2023/05/20 04:40:12;;;;;;;27.23;16.38;;;;;;;;;;10233111;28;20090;-85
2023/05/20 04:45:13;;;;;;;27.50;15.85;;;;;;;;;;10238001;28;20754;-86
2023/05/20 04:50:14;;;;;;;25.95;15.70;;;;;;;;;;10249463;28;20066;-85
2023/05/20 04:55:15;;;;;;;24.58;16.65;;;;;;;;;;10244354;28;20039;-84
2023/05/20 05:00:18;;;;;;;19.10;13.07;;;;;;;;;;10233299;28;20020;-83
2023/05/20 05:05:19;;;;;;;19.08;12.02;;;;;;;;;;10251555;28;20059;-83
2023/05/20 05:10:22;;;;;;;18.00;11.40;;;;;;;;;;10242069;28;20035;-84
2023/05/20 05:15:23;;;;;;;18.15;11.75;;;;;;;;;;10246748;28;20058;-85
2023/05/20 05:20:24;;;;;;;19.45;11.52;;;;;;;;;;10226861;28;20067;-84
2023/05/20 05:25:25;;;;;;;19.25;11.88;;;;;;;;;;10241354;28;20042;-84
2023/05/20 05:30:26;;;;;;;17.30;11.88;;;;;;;;;;10246966;28;20035;-87
2023/05/20 05:35:27;;;;;;;21.35;13.73;;;;;;;;;;10228659;28;20100;-84
2023/05/20 05:40:28;;;;;;;18.08;10.95;;;;;;;;;;10229017;28;20125;-85
2023/05/20 05:45:29;;;;;;;17.48;10.73;;;;;;;;;;10241993;28;20089;-85
2023/05/20 05:50:30;;;;;;;21.45;12.80;;;;;;;;;;10224145;28;20050;-84
2023/05/20 05:55:31;;;;;;;21.00;13.63;;;;;;;;;;10244056;28;20050;-86
2023/05/20 06:00:32;;;;;;;19.35;12.98;;;;;;;;;;10238296;28;20045;-84
2023/05/20 06:05:33;;;;;;;21.15;13.98;;;;;;;;;;10246842;28;20062;-84
2023/05/20 06:10:34;;;;;;;21.98;13.85;;;;;;;;;;10243993;28;20387;-84
2023/05/20 06:15:35;;;;;;;21.98;13.57;;;;;;;;;;10231974;28;20050;-86
2023/05/20 06:20:36;;;;;;;23.52;14.65;;;;;;;;;;10228092;28;20129;-83
2023/05/20 06:25:37;;;;;;;22.75;14.43;;;;;;;;;;10249607;28;20618;-89
2023/05/20 06:30:38;;;;;;;24.00;14.50;;;;;;;;;;10232090;28;20063;-87
2023/05/20 06:35:39;;;;;;;25.92;14.88;;;;;;;;;;10220092;28;20047;-85
2023/05/20 06:40:40;;;;;;;26.90;16.52;;;;;;;;;;10244300;28;20039;-85
2023/05/20 06:45:41;;;;;;;33.25;16.95;;;;;;;;;;10243606;28;20404;-86
2023/05/20 06:50:42;;;;;;;25.27;15.25;;;;;;;;;;10227528;28;20032;-85
2023/05/20 06:55:43;;;;;;;27.08;16.40;;;;;;;;;;10243548;28;20047;-87
2023/05/20 07:00:46;;;;;;;26.52;16.60;;;;;;;;;;10243384;28;20035;-86
2023/05/20 07:05:49;;;;;;;24.75;15.77;;;;;;;;;;10254546;28;20058;-86
2023/05/20 07:10:52;;;;;;;26.88;16.45;;;;;;;;;;10262870;28;20050;-86
2023/05/20 07:15:55;;;;;;;27.90;16.95;;;;;;;;;;10250050;28;20047;-83
2023/05/20 07:21:00;;;;;;;31.48;18.30;;;;;;;;;;10237399;28;20034;-87
2023/05/20 07:26:02;;;;;;;30.95;19.52;;;;;;;;;;10254679;28;20513;-84
2023/05/20 07:31:12;;;;;;;30.25;18.83;;;;;;;;;;10247631;28;20023;-85
2023/05/20 07:36:15;;;;;;;28.38;19.05;;;;;;;;;;10231502;28;20047;-83
2023/05/20 07:41:16;;;;;;;29.08;18.10;;;;;;;;;;10243284;28;20135;-85
2023/05/20 07:46:17;;;;;;;28.67;18.50;;;;;;;;;;10252158;28;20491;-85
2023/05/20 07:51:20;;;;;;;30.98;19.77;;;;;;;;;;10238761;28;20023;-83
2023/05/20 07:56:23;;;;;;;30.67;20.67;;;;;;;;;;10243311;28;20297;-84
2023/05/20 08:01:24;;;;;;;33.15;22.27;;;;;;;;;;10247464;28;20097;-85
2023/05/20 08:06:25;;;;;;;37.67;25.42;;;;;;;;;;10240955;28;20050;-86
2023/05/20 08:11:26;;;;;;;41.25;24.30;;;;;;;;;;10235965;28;20027;-85
2023/05/20 08:16:27;;;;;;;39.30;22.10;;;;;;;;;;10243009;28;20047;-84
2023/05/20 08:21:28;;;;;;;34.67;22.52;;;;;;;;;;10236166;28;20038;-85
2023/05/20 08:26:29;;;;;;;31.75;20.70;;;;;;;;;;10258246;28;20597;-85
2023/05/20 08:31:30;;;;;;;33.78;22.42;;;;;;;;;;10236063;28;20039;-86
2023/05/20 08:36:32;;;;;;;41.38;24.05;;;;;;;;;;10219349;28;20054;-86
2023/05/20 08:41:33;;;;;;;31.55;19.23;;;;;;;;;;10240709;28;20387;-86
2023/05/20 08:46:35;;;;;;;34.83;21.85;;;;;;;;;;10217390;28;20027;-85
2023/05/20 08:51:38;;;;;;;39.90;23.92;;;;;;;;;;10222770;28;20562;-85
2023/05/20 08:56:40;;;;;;;30.88;18.77;;;;;;;;;;10231702;28;20085;-84
2023/05/20 09:01:51;;;;;;;26.50;18.55;;;;;;;;;;10244136;28;20035;-83
2023/05/20 09:06:52;;;;;;;27.67;17.48;;;;;;;;;;10240419;28;20058;-83
2023/05/20 09:11:53;;;;;;;25.73;17.40;;;;;;;;;;10239295;28;20031;-85
2023/05/20 09:16:54;;;;;;;25.58;18.00;;;;;;;;;;10230428;28;20046;-78
2023/05/20 09:21:55;;;;;;;26.60;16.85;;;;;;;;;;10240161;28;20045;-87
2023/05/20 09:26:57;;;;;;;37.97;21.20;;;;;;;;;;10251543;28;20036;-85
2023/05/20 09:32:01;;;;;;;23.67;15.77;;;;;;;;;;10248343;28;20090;-86
2023/05/20 09:37:03;;;;;;;26.23;17.98;;;;;;;;;;10253445;28;20047;-87
2023/05/20 09:42:12;;;;;;;22.48;15.18;;;;;;;;;;10229178;28;20055;-85
2023/05/20 09:47:13;;;;;;;19.95;15.10;;;;;;;;;;10246262;28;20031;-84
2023/05/20 09:52:15;;;;;;;46.05;23.88;;;;;;;;;;10253830;28;20510;-85
2023/05/20 09:57:16;;;;;;;21.27;15.60;;;;;;;;;;10259995;28;20054;-87
2023/05/20 10:02:17;;;;;;;21.13;15.25;;;;;;;;;;10229341;28;20041;-85
2023/05/20 10:07:36;;;;;;;21.13;14.32;;;;;;;;;;10250101;28;20051;-86
2023/05/20 10:12:44;;;;;;;18.38;13.25;;;;;;;;;;10257166;28;20073;-87
2023/05/20 10:17:58;;;;;;;18.00;13.90;;;;;;;;;;10243272;28;20070;-86
2023/05/20 10:23:00;;;;;;;26.08;18.80;;;;;;;;;;10253209;28;20511;-87
2023/05/20 10:28:07;;;;;;;25.73;15.20;;;;;;;;;;10240437;28;20598;-86
2023/05/20 10:33:09;;;;;;;19.48;14.32;;;;;;;;;;10241853;28;20035;-86
2023/05/20 10:38:10;;;;;;;27.23;18.48;;;;;;;;;;10233289;28;20035;-86
2023/05/20 10:43:12;;;;;;;26.63;17.63;;;;;;;;;;10224182;28;20055;-83
2023/05/20 10:48:40;;;;;;;28.90;19.05;;;;;;;;;;10242240;28;20035;-85
2023/05/20 10:53:42;;;;;;;34.80;20.65;;;;;;;;;;10235869;28;20428;-86
2023/05/20 10:58:43;;;;;;;31.13;19.75;;;;;;;;;;10228752;28;20444;-84
2023/05/20 11:03:47;;;;;;;27.65;19.08;;;;;;;;;;10235506;28;20062;-85
2023/05/20 11:08:48;;;;;;;31.20;21.17;;;;;;;;;;10207397;29;20110;-84
2023/05/20 11:13:50;;;;;;;31.88;22.38;;;;;;;;;;10204659;29;20035;-85
2023/05/20 11:18:51;;;;;;;31.88;20.98;;;;;;;;;;10210104;29;20031;-84
2023/05/20 11:23:52;;;;;;;27.42;21.58;;;;;;;;;;10202651;29;20074;-84
2023/05/20 11:28:53;;;;;;;31.58;21.33;;;;;;;;;;10202295;29;20027;-85
2023/05/20 11:33:55;;;;;;;31.83;20.90;;;;;;;;;;10209809;29;20113;-87
2023/05/20 11:38:59;;;;;;;34.88;22.88;;;;;;;;;;10210762;29;20036;-85
2023/05/20 11:44:00;;;;;;;26.57;18.83;;;;;;;;;;10202921;29;20063;-87
2023/05/20 11:49:01;;;;;;;30.33;20.58;;;;;;;;;;10204091;29;20031;-85
2023/05/20 11:54:03;;;;;;;30.40;20.55;;;;;;;;;;10198875;29;20032;-85
2023/05/20 11:59:05;;;;;;;26.83;19.10;;;;;;;;;;10212408;29;20133;-88
2023/05/20 12:04:06;;;;;;;29.27;18.45;;;;;;;;;;10204792;28;20027;-86
2023/05/20 12:09:08;;;;;;;26.02;16.83;;;;;;;;;;10227815;28;20031;-88
2023/05/20 12:14:10;;;;;;;24.90;17.02;;;;;;;;;;10204067;28;20483;-88
2023/05/20 12:19:13;;;;;;;30.92;22.20;;;;;;;;;;10223400;28;20510;-90
2023/05/20 12:24:15;;;;;;;24.67;19.02;;;;;;;;;;10237874;28;20163;-89
2023/05/20 12:29:16;;;;;;;22.13;17.73;;;;;;;;;;10223531;28;20038;-91
2023/05/20 12:34:17;;;;;;;32.92;20.42;;;;;;;;;;10234412;28;20055;-90
2023/05/20 12:39:18;;;;;;;27.25;17.55;;;;;;;;;;10230596;28;20050;-89
2023/05/20 12:44:19;;;;;;;20.92;17.00;;;;;;;;;;10239534;28;20035;-88
2023/05/20 12:49:33;;;;;;;24.80;17.77;;;;;;;;;;10224540;28;20036;-90
2023/05/20 12:54:34;;;;;;;21.65;16.27;;;;;;;;;;10223317;28;20062;-86
2023/05/20 12:59:35;;;;;;;29.33;18.83;;;;;;;;;;10248078;28;20605;-88
2023/05/20 13:04:36;;;;;;;24.13;14.70;;;;;;;;;;10233437;28;20565;-90
2023/05/20 13:09:37;;;;;;;20.15;15.30;;;;;;;;;;10255827;28;20442;-88
2023/05/20 13:14:38;;;;;;;21.35;16.67;;;;;;;;;;10231930;28;20043;-90
2023/05/20 13:19:39;;;;;;;23.77;15.93;;;;;;;;;;10250094;28;20023;-92
2023/05/20 13:24:40;;;;;;;26.48;19.05;;;;;;;;;;10231790;28;20034;-88
2023/05/20 13:29:42;;;;;;;20.45;16.27;;;;;;;;;;10244816;28;20050;-89
2023/05/20 13:34:43;;;;;;;20.58;16.10;;;;;;;;;;10228313;28;20574;-89
2023/05/20 13:39:44;;;;;;;20.27;16.05;;;;;;;;;;10230127;28;20042;-89
2023/05/20 13:44:45;;;;;;;20.17;15.35;;;;;;;;;;10242965;28;20378;-90
2023/05/20 13:49:46;;;;;;;17.10;13.40;;;;;;;;;;10247201;28;20613;-89
2023/05/20 13:54:47;;;;;;;17.60;13.25;;;;;;;;;;10230361;28;20090;-89
2023/05/20 13:59:48;;;;;;;18.77;14.23;;;;;;;;;;10229762;28;20716;-89
2023/05/20 14:04:49;;;;;;;16.85;13.85;;;;;;;;;;10229464;28;20106;-90
2023/05/20 14:09:50;;;;;;;19.65;13.55;;;;;;;;;;10229396;28;20050;-89
2023/05/20 14:14:51;;;;;;;24.30;17.23;;;;;;;;;;10236270;28;20035;-89
2023/05/20 14:19:52;;;;;;;25.08;15.65;;;;;;;;;;10242269;28;20065;-87
2023/05/20 14:24:53;;;;;;;21.95;14.13;;;;;;;;;;10243385;28;20033;-88
2023/05/20 14:29:54;;;;;;;18.88;13.38;;;;;;;;;;10249351;28;20035;-89
2023/05/20 14:34:55;;;;;;;18.02;13.32;;;;;;;;;;10227907;28;20052;-90
2023/05/20 14:39:56;;;;;;;16.73;12.35;;;;;;;;;;10228747;28;20039;-89
2023/05/20 14:44:57;;;;;;;21.60;13.75;;;;;;;;;;10228633;28;20031;-88
2023/05/20 14:49:59;;;;;;;19.27;14.02;;;;;;;;;;10245458;28;20365;-88
2023/05/20 14:55:00;;;;;;;21.30;13.70;;;;;;;;;;10228433;28;20850;-88
2023/05/20 15:00:01;;;;;;;19.45;14.75;;;;;;;;;;10243432;28;20426;-86
2023/05/20 15:05:02;;;;;;;19.15;13.75;;;;;;;;;;10243767;28;20166;-87
2023/05/20 15:10:04;;;;;;;22.38;14.57;;;;;;;;;;10226600;28;20395;-86
2023/05/20 15:15:05;;;;;;;17.35;12.82;;;;;;;;;;10226206;28;20019;-88
2023/05/20 15:20:06;;;;;;;18.35;12.82;;;;;;;;;;10226829;28;20152;-88
2023/05/20 15:25:07;;;;;;;18.83;13.98;;;;;;;;;;10226831;28;20019;-86
2023/05/20 15:30:09;;;;;;;20.65;13.45;;;;;;;;;;10225518;28;20037;-90
2023/05/20 15:35:10;;;;;;;21.48;12.77;;;;;;;;;;10244284;28;20050;-88
2023/05/20 15:40:11;;;;;;;19.63;13.00;;;;;;;;;;10212914;28;20121;-88
2023/05/20 15:45:12;;;;;;;23.17;13.77;;;;;;;;;;10250740;28;20027;-88
2023/05/20 15:50:13;;;;;;;23.40;12.93;;;;;;;;;;10226605;28;20054;-89
2023/05/20 15:55:14;;;;;;;20.83;13.18;;;;;;;;;;10226010;28;20086;-89
2023/05/20 16:00:16;;;;;;;15.38;12.32;;;;;;;;;;10227066;28;20031;-90
2023/05/20 16:05:17;;;;;;;18.15;13.13;;;;;;;;;;10226724;28;20090;-89
2023/05/20 16:10:19;;;;;;;25.42;17.52;;;;;;;;;;10239045;28;20550;-88
2023/05/20 16:15:20;;;;;;;25.42;17.08;;;;;;;;;;10225766;28;20042;-89
2023/05/20 16:20:22;;;;;;;19.55;13.57;;;;;;;;;;10239050;28;20399;-88
2023/05/20 16:25:22;;;;;;;19.58;13.50;;;;;;;;;;10225348;28;20679;-88
2023/05/20 16:30:24;;;;;;;17.70;13.55;;;;;;;;;;10225088;28;20035;-89
2023/05/20 16:35:25;;;;;;;18.70;12.63;;;;;;;;;;10225487;28;20058;-89
2023/05/20 16:40:26;;;;;;;19.58;12.73;;;;;;;;;;10224572;28;20376;-88
2023/05/20 16:45:27;;;;;;;17.13;12.68;;;;;;;;;;10224543;28;20740;-88
2023/05/20 16:50:28;;;;;;;17.95;12.45;;;;;;;;;;10240249;28;20070;-88
2023/05/20 16:55:29;;;;;;;19.75;13.15;;;;;;;;;;10224353;28;20566;-88
2023/05/20 17:00:30;;;;;;;17.98;13.48;;;;;;;;;;10224000;28;20045;-88
2023/05/20 17:05:31;;;;;;;18.85;13.27;;;;;;;;;;10223695;28;20079;-88
2023/05/20 17:10:32;;;;;;;18.27;13.25;;;;;;;;;;10240927;28;20787;-89
2023/05/20 17:15:35;;;;;;;19.80;14.30;;;;;;;;;;10223967;28;20039;-89
2023/05/20 17:20:36;;;;;;;20.80;13.35;;;;;;;;;;10223829;28;20474;-89
2023/05/20 17:25:37;;;;;;;18.15;13.65;;;;;;;;;;10224436;28;20042;-89
2023/05/20 17:30:38;;;;;;;20.40;13.30;;;;;;;;;;10223408;28;20027;-90
2023/05/20 17:35:39;;;;;;;19.58;14.20;;;;;;;;;;10223167;28;20043;-88
2023/05/20 17:40:40;;;;;;;17.17;13.68;;;;;;;;;;10223787;28;20038;-88
2023/05/20 17:45:41;;;;;;;17.10;13.20;;;;;;;;;;10240641;28;20556;-88
2023/05/20 17:50:42;;;;;;;19.45;13.30;;;;;;;;;;10236386;28;20039;-88
2023/05/20 17:55:45;;;;;;;16.30;12.90;;;;;;;;;;10229406;28;20106;-88
2023/05/20 18:00:46;;;;;;;21.63;15.93;;;;;;;;;;10247294;28;20097;-88
2023/05/20 18:05:48;;;;;;;26.05;15.38;;;;;;;;;;10247218;28;20097;-88
2023/05/20 18:10:49;;;;;;;20.38;14.20;;;;;;;;;;10229571;28;20497;-88
2023/05/20 18:15:51;;;;;;;25.83;17.55;;;;;;;;;;10228940;28;20571;-88
2023/05/20 18:20:52;;;;;;;20.88;15.88;;;;;;;;;;10228407;28;20074;-88
2023/05/20 18:25:53;;;;;;;23.67;16.83;;;;;;;;;;10247664;28;20568;-88
2023/05/20 18:30:56;;;;;;;24.40;17.33;;;;;;;;;;10234490;28;20050;-87
2023/05/20 18:35:57;;;;;;;19.90;15.68;;;;;;;;;;10227953;28;20043;-86
2023/05/20 18:40:59;;;;;;;21.77;14.52;;;;;;;;;;10228356;28;20086;-88
2023/05/20 18:46:00;;;;;;;19.23;15.07;;;;;;;;;;10228464;28;20063;-88
2023/05/20 18:51:01;;;;;;;16.48;12.93;;;;;;;;;;10228545;28;20039;-89
2023/05/20 18:56:02;;;;;;;17.85;13.02;;;;;;;;;;10229314;28;20039;-88
2023/05/20 19:01:03;;;;;;;17.58;12.13;;;;;;;;;;10227944;28;20039;-88
2023/05/20 19:06:04;;;;;;;17.58;11.30;;;;;;;;;;10239740;28;20054;-88
2023/05/20 19:11:05;;;;;;;14.98;10.55;;;;;;;;;;10229329;28;20027;-88
2023/05/20 19:16:06;;;;;;;13.63;9.88;;;;;;;;;;10229996;28;20459;-88
2023/05/20 19:21:07;;;;;;;19.70;10.18;;;;;;;;;;10230255;28;20054;-89
2023/05/20 19:26:08;;;;;;;12.80;10.05;;;;;;;;;;10246446;28;20035;-88
2023/05/20 19:31:09;;;;;;;13.48;10.07;;;;;;;;;;10236272;28;20030;-88
2023/05/20 19:36:10;;;;;;;16.58;9.80;;;;;;;;;;10234452;28;20047;-88
2023/05/20 19:41:12;;;;;;;12.13;9.85;;;;;;;;;;10230573;28;20122;-88
2023/05/20 19:46:13;;;;;;;14.88;9.85;;;;;;;;;;10243292;28;20042;-89
2023/05/20 19:51:14;;;;;;;13.70;10.27;;;;;;;;;;10228576;28;20066;-88
2023/05/20 19:56:18;;;;;;;15.52;10.15;;;;;;;;;;10230533;28;20047;-87
2023/05/20 20:01:19;;;;;;;15.10;10.05;;;;;;;;;;10236462;28;20360;-89
2023/05/20 20:06:20;;;;;;;16.25;10.48;;;;;;;;;;10257171;28;20134;-88
2023/05/20 20:11:22;;;;;;;12.75;9.23;;;;;;;;;;10242564;28;20042;-92
2023/05/20 20:16:23;;;;;;;14.45;11.05;;;;;;;;;;10230857;28;20035;-87
2023/05/20 20:21:24;;;;;;;14.60;11.35;;;;;;;;;;10233645;28;20039;-90
2023/05/20 20:26:26;;;;;;;16.48;10.95;;;;;;;;;;10248880;28;20035;-89
2023/05/20 20:31:27;;;;;;;16.80;11.65;;;;;;;;;;10246200;28;20038;-88
2023/05/20 20:36:34;;;;;;;13.32;11.25;;;;;;;;;;10257919;28;20159;-89
2023/05/20 20:41:37;;;;;;;15.48;12.10;;;;;;;;;;10220656;28;20110;-88
2023/05/20 20:46:40;;;;;;;16.42;11.75;;;;;;;;;;10228810;28;20584;-89
2023/05/20 20:51:41;;;;;;;18.48;11.77;;;;;;;;;;10230307;28;20035;-89
2023/05/20 20:56:44;;;;;;;15.23;11.75;;;;;;;;;;10230919;28;20051;-89
2023/05/20 21:01:45;;;;;;;17.35;11.57;;;;;;;;;;10231375;28;20475;-89
2023/05/20 21:06:46;;;;;;;16.27;12.30;;;;;;;;;;10238594;28;20063;-89
2023/05/20 21:11:48;;;;;;;16.20;12.15;;;;;;;;;;10246447;28;20375;-89
2023/05/20 21:16:49;;;;;;;15.40;11.43;;;;;;;;;;10228408;28;20039;-88
2023/05/20 21:21:50;;;;;;;18.23;12.27;;;;;;;;;;10227491;28;20415;-88
2023/05/20 21:26:51;;;;;;;18.75;13.48;;;;;;;;;;10228809;28;20050;-88
2023/05/20 21:31:52;;;;;;;20.77;13.00;;;;;;;;;;10232133;28;20121;-88
2023/05/20 21:36:53;;;;;;;20.67;13.35;;;;;;;;;;10250231;28;20031;-88
2023/05/20 21:41:54;;;;;;;21.25;13.68;;;;;;;;;;10234386;28;20503;-88
2023/05/20 21:46:55;;;;;;;19.17;13.98;;;;;;;;;;10234859;28;20066;-88
2023/05/20 21:51:56;;;;;;;17.40;12.95;;;;;;;;;;10250831;28;20132;-89
2023/05/20 21:56:57;;;;;;;19.08;14.55;;;;;;;;;;10230487;28;20509;-89
2023/05/20 22:01:59;;;;;;;18.80;13.82;;;;;;;;;;10252527;28;20032;-88
2023/05/20 22:07:00;;;;;;;19.05;14.02;;;;;;;;;;10206876;29;20048;-87
2023/05/20 22:12:02;;;;;;;20.20;14.02;;;;;;;;;;10206305;29;20032;-89
2023/05/20 22:17:03;;;;;;;18.23;14.13;;;;;;;;;;10191469;29;20048;-88
2023/05/20 22:22:04;;;;;;;19.40;14.48;;;;;;;;;;10207567;29;20585;-89
2023/05/20 22:27:06;;;;;;;20.42;14.63;;;;;;;;;;10203081;29;20744;-87
2023/05/20 22:32:07;;;;;;;20.13;14.10;;;;;;;;;;10216753;29;20023;-88
2023/05/20 22:37:08;;;;;;;20.23;14.55;;;;;;;;;;10205596;29;20514;-89
2023/05/20 22:42:09;;;;;;;21.42;14.55;;;;;;;;;;10216411;28;20063;-87
2023/05/20 22:47:10;;;;;;;19.17;14.77;;;;;;;;;;10213090;29;20055;-88
2023/05/20 22:52:11;;;;;;;19.98;13.13;;;;;;;;;;10220861;28;20177;-89
2023/05/20 22:57:12;;;;;;;21.38;15.35;;;;;;;;;;10233694;28;20216;-88
2023/05/20 23:02:13;;;;;;;18.65;14.75;;;;;;;;;;10223643;29;20240;-90
2023/05/20 23:07:17;;;;;;;19.30;13.75;;;;;;;;;;10208516;29;20167;-88
2023/05/20 23:12:18;;;;;;;17.77;13.50;;;;;;;;;;10191843;29;20118;-88
2023/05/20 23:17:19;;;;;;;19.35;13.73;;;;;;;;;;10202116;29;20135;-90
2023/05/20 23:22:21;;;;;;;21.88;13.70;;;;;;;;;;10211930;29;20778;-91
2023/05/20 23:27:22;;;;;;;19.77;13.25;;;;;;;;;;10195666;29;20484;-88
2023/05/20 23:32:23;;;;;;;18.83;13.43;;;;;;;;;;10204708;29;20040;-87
2023/05/20 23:37:24;;;;;;;17.70;13.35;;;;;;;;;;10205986;29;20070;-88
2023/05/20 23:42:25;;;;;;;20.73;14.25;;;;;;;;;;10193989;29;20134;-89
2023/05/20 23:47:28;;;;;;;21.83;13.90;;;;;;;;;;10207090;29;20044;-88
2023/05/20 23:52:29;;;;;;;19.40;13.57;;;;;;;;;;10191526;29;20074;-90
2023/05/20 23:57:30;;;;;;;19.77;13.77;;;;;;;;;;10192718;29;20055;-87
